createdAt,value
2019-05-30T00:02:09.972Z,10.70
2019-05-30T00:04:36.807Z,10.70
2019-05-30T00:07:04.646Z,10.60
2019-05-30T00:09:33.035Z,10.50
2019-05-30T00:12:00.764Z,10.50
2019-05-30T00:14:28.045Z,10.60
2019-05-30T00:16:54.712Z,10.60
2019-05-30T00:19:21.446Z,10.90
2019-05-30T00:21:48.109Z,11.00
2019-05-30T00:24:14.845Z,11.10
2019-05-30T00:26:42.522Z,11.10
2019-05-30T00:29:09.254Z,11.10
2019-05-30T00:31:35.924Z,11.10
2019-05-30T00:34:04.102Z,11.00
2019-05-30T00:36:31.236Z,10.90
2019-05-30T00:38:57.869Z,11.00
2019-05-30T00:41:24.438Z,10.90
2019-05-30T00:43:51.066Z,10.90
2019-05-30T00:46:17.743Z,10.70
2019-05-30T00:48:44.312Z,10.50
2019-05-30T00:51:10.977Z,10.50
2019-05-30T00:53:37.515Z,10.50
2019-05-30T00:56:04.778Z,10.30
2019-05-30T00:58:31.432Z,10.40
2019-05-30T01:00:59.046Z,10.40
2019-05-30T01:03:27.449Z,10.30
2019-05-30T01:05:56.664Z,10.20
2019-05-30T01:08:23.483Z,10.10
2019-05-30T01:10:50.010Z,10.10
2019-05-30T01:13:16.586Z,10.20
2019-05-30T01:15:43.119Z,10.20
2019-05-30T01:18:09.685Z,10.10
2019-05-30T01:20:36.214Z,10.00
2019-05-30T01:23:03.264Z,9.90
2019-05-30T01:25:29.920Z,10.00
2019-05-30T01:27:57.325Z,10.00
2019-05-30T01:30:24.013Z,9.90
2019-05-30T01:32:50.477Z,9.90
2019-05-30T01:35:17.200Z,9.80
2019-05-30T01:37:43.755Z,9.60
2019-05-30T01:40:10.602Z,9.50
2019-05-30T01:42:37.179Z,9.50
2019-05-30T01:45:06.790Z,9.60
2019-05-30T01:47:33.358Z,9.50
2019-05-30T01:50:00.333Z,9.60
2019-05-30T01:52:27.349Z,9.50
2019-05-30T01:54:53.978Z,9.50
2019-05-30T01:57:21.638Z,9.70
2019-05-30T01:59:48.376Z,9.90
2019-05-30T02:02:15.046Z,9.90
2019-05-30T02:04:42.202Z,10.00
2019-05-30T02:07:09.418Z,10.00
2019-05-30T02:09:37.646Z,9.80
2019-05-30T02:12:05.552Z,9.80
2019-05-30T02:14:32.333Z,9.80
2019-05-30T02:16:59.596Z,9.70
2019-05-30T02:19:27.945Z,9.70
2019-05-30T02:21:54.607Z,9.70
2019-05-30T02:24:21.247Z,9.80
2019-05-30T02:26:47.820Z,9.60
2019-05-30T02:29:14.346Z,9.70
2019-05-30T02:31:40.982Z,9.90
2019-05-30T02:34:09.193Z,9.60
2019-05-30T02:36:36.094Z,9.70
2019-05-30T02:39:07.416Z,9.60
2019-05-30T02:41:34.595Z,9.60
2019-05-30T02:44:03.013Z,9.60
2019-05-30T02:46:29.995Z,9.50
2019-05-30T02:48:59.518Z,9.60
2019-05-30T02:51:27.508Z,9.70
2019-05-30T02:53:54.160Z,9.60
2019-05-30T02:56:20.963Z,9.50
2019-05-30T02:58:47.532Z,9.50
2019-05-30T03:01:15.086Z,9.50
2019-05-30T03:03:41.727Z,9.40
2019-05-30T03:06:09.222Z,9.50
2019-05-30T03:08:37.076Z,9.50
2019-05-30T03:11:05.078Z,9.60
2019-05-30T03:13:32.590Z,9.60
2019-05-30T03:16:02.178Z,9.50
2019-05-30T03:18:29.084Z,9.40
2019-05-30T03:20:55.655Z,9.30
2019-05-30T03:23:23.384Z,9.30
2019-05-30T03:25:49.949Z,9.40
2019-05-30T03:28:16.612Z,9.50
2019-05-30T03:30:44.271Z,9.50
2019-05-30T03:33:34.925Z,9.40
2019-05-30T03:35:43.492Z,9.40
2019-05-30T03:38:10.471Z,9.50
2019-05-30T03:40:37.069Z,9.50
2019-05-30T03:43:05.973Z,9.50
2019-05-30T03:45:34.400Z,9.40
2019-05-30T03:48:06.570Z,9.40
2019-05-30T03:50:35.744Z,9.40
2019-05-30T03:53:02.298Z,9.50
2019-05-30T03:55:31.651Z,9.50
2019-05-30T03:58:22.218Z,9.50
2019-05-30T04:00:55.667Z,9.70
2019-05-30T04:03:42.070Z,9.70
2019-05-30T04:06:27.528Z,9.60
2019-05-30T04:08:58.704Z,9.80
2019-05-30T04:11:33.315Z,9.90
2019-05-30T04:14:03.075Z,9.70
2019-05-30T04:16:29.619Z,9.70
2019-05-30T04:18:56.278Z,9.60
2019-05-30T04:21:23.037Z,9.70
2019-05-30T04:23:49.704Z,9.80
2019-05-30T04:26:17.907Z,9.70
2019-05-30T04:28:46.510Z,9.90
2019-05-30T04:31:16.809Z,10.00
2019-05-30T04:33:43.201Z,10.00
2019-05-30T04:36:10.510Z,10.10
2019-05-30T04:38:38.906Z,10.10
2019-05-30T04:41:05.763Z,10.10
2019-05-30T04:43:32.332Z,10.00
2019-05-30T04:45:59.174Z,10.10
2019-05-30T04:48:25.745Z,10.20
2019-05-30T04:50:52.511Z,10.20
2019-05-30T04:53:21.024Z,10.20
2019-05-30T04:55:47.609Z,10.20
2019-05-30T04:58:15.424Z,10.30
2019-05-30T05:00:42.802Z,10.30
2019-05-30T05:03:11.204Z,10.50
2019-05-30T05:05:38.005Z,10.50
2019-05-30T05:08:04.645Z,10.70
2019-05-30T05:10:31.515Z,10.80
2019-05-30T05:12:58.142Z,10.90
2019-05-30T05:15:24.908Z,11.00
2019-05-30T05:17:52.932Z,11.00
2019-05-30T05:20:19.596Z,11.20
2019-05-30T05:22:46.322Z,11.20
2019-05-30T05:25:13.349Z,11.30
2019-05-30T05:27:39.930Z,11.40
2019-05-30T05:30:07.907Z,11.30
2019-05-30T05:32:34.539Z,11.40
2019-05-30T05:35:01.300Z,11.50
2019-05-30T05:37:28.057Z,11.60
2019-05-30T05:39:54.815Z,11.70
2019-05-30T05:42:22.561Z,11.90
2019-05-30T05:44:49.473Z,12.00
2019-05-30T05:47:16.413Z,12.10
2019-05-30T05:49:43.231Z,12.30
2019-05-30T05:52:12.014Z,12.30
2019-05-30T05:54:38.426Z,12.50
2019-05-30T05:57:04.990Z,12.70
2019-05-30T05:59:31.724Z,12.70
2019-05-30T06:01:58.391Z,12.80
2019-05-30T06:04:25.276Z,12.80
2019-05-30T06:06:51.981Z,13.00
2019-05-30T06:09:18.638Z,13.10
2019-05-30T06:11:48.990Z,13.20
2019-05-30T06:14:14.732Z,13.30
2019-05-30T06:16:41.493Z,13.50
2019-05-30T06:19:08.142Z,13.60
2019-05-30T06:21:34.893Z,13.70
2019-05-30T06:24:01.517Z,13.90
2019-05-30T06:26:28.184Z,13.90
2019-05-30T06:28:54.753Z,14.00
2019-05-30T06:31:22.486Z,14.20
2019-05-30T06:33:49.162Z,14.50
2019-05-30T06:36:15.819Z,14.70
2019-05-30T06:38:42.542Z,14.80
2019-05-30T06:41:09.337Z,14.90
2019-05-30T06:43:36.079Z,15.00
2019-05-30T06:46:04.371Z,15.10
2019-05-30T06:48:31.136Z,15.10
2019-05-30T06:50:57.753Z,15.20
2019-05-30T06:53:25.110Z,15.40
2019-05-30T06:55:51.744Z,15.40
2019-05-30T06:58:19.410Z,15.40
2019-05-30T07:00:46.449Z,15.40
2019-05-30T07:03:13.148Z,15.50
2019-05-30T07:05:40.272Z,15.60
2019-05-30T07:08:07.179Z,15.60
2019-05-30T07:10:35.361Z,15.80
2019-05-30T07:13:02.034Z,15.70
2019-05-30T07:15:29.246Z,15.90
2019-05-30T07:17:55.914Z,15.90
2019-05-30T07:20:23.465Z,16.10
2019-05-30T07:22:50.114Z,16.00
2019-05-30T07:25:16.950Z,16.10
2019-05-30T07:27:43.631Z,16.00
2019-05-30T07:30:10.842Z,16.20
2019-05-30T07:32:37.405Z,16.30
2019-05-30T07:35:07.548Z,16.30
2019-05-30T07:37:34.432Z,16.30
2019-05-30T07:40:00.942Z,16.50
2019-05-30T07:42:28.628Z,16.60
2019-05-30T07:44:55.482Z,16.80
2019-05-30T07:47:22.053Z,16.70
2019-05-30T07:49:48.694Z,16.70
2019-05-30T07:52:15.372Z,16.70
2019-05-30T07:54:42.014Z,16.80
2019-05-30T07:57:08.642Z,16.80
2019-05-30T07:59:35.309Z,16.80
2019-05-30T08:02:02.143Z,17.00
2019-05-30T08:04:29.461Z,17.10
2019-05-30T08:06:57.137Z,17.30
2019-05-30T08:09:23.806Z,17.20
2019-05-30T08:11:50.427Z,17.20
2019-05-30T08:14:17.095Z,17.10
2019-05-30T08:16:43.938Z,17.20
2019-05-30T08:19:10.615Z,17.40
2019-05-30T08:21:38.303Z,17.40
2019-05-30T08:24:05.536Z,17.40
2019-05-30T08:26:32.749Z,17.50
2019-05-30T08:28:59.932Z,17.60
2019-05-30T08:31:28.599Z,17.80
2019-05-30T08:33:55.534Z,17.80
2019-05-30T08:36:22.268Z,17.60
2019-05-30T08:38:50.341Z,17.50
2019-05-30T08:41:17.005Z,17.50
2019-05-30T08:43:43.741Z,17.50
2019-05-30T08:46:10.566Z,17.60
2019-05-30T08:48:38.288Z,17.60
2019-05-30T08:51:05.146Z,17.50
2019-05-30T08:53:32.706Z,17.80
2019-05-30T08:55:59.542Z,17.90
2019-05-30T08:58:26.200Z,18.00
2019-05-30T09:00:52.841Z,18.30
2019-05-30T09:03:19.611Z,18.40
2019-05-30T09:05:59.253Z,18.30
2019-05-30T09:08:14.778Z,18.60
2019-05-30T09:10:42.661Z,18.80
2019-05-30T09:13:09.374Z,19.10
2019-05-30T09:15:37.477Z,19.20
2019-05-30T09:18:04.490Z,19.20
2019-05-30T09:20:31.161Z,19.40
2019-05-30T09:22:57.909Z,19.50
2019-05-30T09:25:24.778Z,19.70
2019-05-30T09:27:51.555Z,19.90
2019-05-30T09:30:20.421Z,19.60
2019-05-30T09:32:47.117Z,19.60
2019-05-30T09:35:16.114Z,19.30
2019-05-30T09:37:45.772Z,19.30
2019-05-30T09:40:14.837Z,19.40
2019-05-30T09:42:44.165Z,19.40
2019-05-30T09:45:13.981Z,19.20
2019-05-30T09:47:43.023Z,19.50
2019-05-30T09:50:09.500Z,19.50
2019-05-30T09:52:36.142Z,19.60
2019-05-30T09:55:06.396Z,19.70
2019-05-30T09:57:33.023Z,19.70
2019-05-30T09:59:59.694Z,19.60
2019-05-30T10:02:27.050Z,19.60
2019-05-30T10:04:53.718Z,19.40
2019-05-30T10:07:20.449Z,19.30
2019-05-30T10:09:47.199Z,19.60
2019-05-30T10:12:15.454Z,19.30
2019-05-30T10:14:45.130Z,19.10
2019-05-30T10:17:11.250Z,19.00
2019-05-30T10:19:37.918Z,19.00
2019-05-30T10:22:05.367Z,18.90
2019-05-30T10:24:31.952Z,18.80
2019-05-30T10:26:58.817Z,18.80
2019-05-30T10:29:25.461Z,18.90
2019-05-30T10:31:52.663Z,18.90
2019-05-30T10:34:19.438Z,19.00
2019-05-30T10:36:47.150Z,19.10
2019-05-30T10:39:15.432Z,19.00
2019-05-30T10:41:42.094Z,18.90
2019-05-30T10:44:08.733Z,18.80
2019-05-30T10:46:35.430Z,18.80
2019-05-30T10:49:01.969Z,18.90
2019-05-30T10:51:30.279Z,19.10
2019-05-30T10:53:56.902Z,19.10
2019-05-30T10:56:25.857Z,18.90
2019-05-30T10:58:52.918Z,18.90
2019-05-30T11:01:19.642Z,18.80
2019-05-30T11:03:48.657Z,18.70
2019-05-30T11:06:19.349Z,18.80
2019-05-30T11:08:47.917Z,18.80
2019-05-30T11:11:15.746Z,18.90
2019-05-30T11:13:42.293Z,19.00
2019-05-30T11:16:08.863Z,18.90
2019-05-30T11:18:35.397Z,18.80
2019-05-30T11:21:02.066Z,18.90
2019-05-30T11:23:28.990Z,18.60
2019-05-30T11:25:57.258Z,18.70
2019-05-30T11:28:24.155Z,18.80
2019-05-30T11:30:50.897Z,18.70
2019-05-30T11:33:17.644Z,18.90
2019-05-30T11:35:44.736Z,18.80
2019-05-30T11:38:11.278Z,18.80
2019-05-30T11:40:38.850Z,19.10
2019-05-30T11:43:05.487Z,18.90
2019-05-30T11:45:32.157Z,18.80
2019-05-30T11:47:59.939Z,18.70
2019-05-30T11:50:27.470Z,18.50
2019-05-30T11:52:54.249Z,18.40
2019-05-30T11:55:20.885Z,18.30
2019-05-30T11:57:47.657Z,18.20
2019-05-30T12:00:14.888Z,18.20
2019-05-30T12:02:43.158Z,18.10
2019-05-30T12:05:11.099Z,18.20
2019-05-30T12:07:37.873Z,17.90
2019-05-30T12:10:07.413Z,18.00
2019-05-30T12:12:34.682Z,18.00
2019-05-30T12:15:03.109Z,18.10
2019-05-30T12:17:29.863Z,17.90
2019-05-30T12:19:57.534Z,17.90
2019-05-30T12:22:24.296Z,17.70
2019-05-30T12:24:51.755Z,17.70
2019-05-30T12:27:18.601Z,17.80
2019-05-30T12:29:45.237Z,17.80
2019-05-30T12:32:11.913Z,17.90
2019-05-30T12:34:39.636Z,18.10
2019-05-30T12:37:06.416Z,18.10
2019-05-30T12:39:33.147Z,18.10
2019-05-30T12:42:01.216Z,18.10
2019-05-30T12:44:27.902Z,18.10
2019-05-30T12:46:55.539Z,17.80
2019-05-30T12:49:22.269Z,17.80
2019-05-30T12:51:48.822Z,17.90
2019-05-30T12:54:15.458Z,17.80
2019-05-30T12:56:42.318Z,18.00
2019-05-30T12:59:08.959Z,17.90
2019-05-30T13:01:35.641Z,17.80
2019-05-30T13:04:04.126Z,17.80
2019-05-30T13:06:30.857Z,18.00
2019-05-30T13:08:59.054Z,18.10
2019-05-30T13:11:26.153Z,18.20
2019-05-30T13:13:52.834Z,18.30
2019-05-30T13:16:20.278Z,18.40
2019-05-30T13:18:46.936Z,18.20
2019-05-30T13:21:14.066Z,18.20
2019-05-30T13:23:40.736Z,18.20
2019-05-30T13:26:07.462Z,18.10
2019-05-30T13:28:34.467Z,18.20
2019-05-30T13:31:02.326Z,18.20
2019-05-30T13:33:30.577Z,18.20
2019-05-30T13:35:58.910Z,18.20
2019-05-30T13:38:27.021Z,18.30
2019-05-30T13:40:53.812Z,18.40
2019-05-30T13:43:20.366Z,18.70
2019-05-30T13:45:46.934Z,18.70
2019-05-30T13:48:13.602Z,18.50
2019-05-30T13:50:40.141Z,18.60
2019-05-30T13:53:07.425Z,18.60
2019-05-30T13:55:34.042Z,18.50
2019-05-30T13:58:01.543Z,18.60
2019-05-30T14:00:29.061Z,18.70
2019-05-30T14:02:55.623Z,18.70
2019-05-30T14:05:22.364Z,18.90
2019-05-30T14:07:48.926Z,18.80
2019-05-30T14:10:16.072Z,18.70
2019-05-30T14:12:42.591Z,18.70
2019-05-30T14:15:13.934Z,18.50
2019-05-30T14:17:40.141Z,18.50
2019-05-30T14:20:07.577Z,18.50
2019-05-30T14:22:35.805Z,18.40
2019-05-30T14:25:05.375Z,18.50
2019-05-30T14:27:32.110Z,18.30
2019-05-30T14:29:58.776Z,18.40
2019-05-30T14:32:26.010Z,18.50
2019-05-30T14:34:52.673Z,18.80
2019-05-30T14:37:19.320Z,18.60
2019-05-30T14:39:45.991Z,18.50
2019-05-30T14:42:13.277Z,18.60
2019-05-30T14:44:40.294Z,18.40
2019-05-30T14:47:06.859Z,18.20
2019-05-30T14:49:33.828Z,18.20
2019-05-30T14:52:00.454Z,17.90
2019-05-30T14:54:27.225Z,18.00
2019-05-30T14:56:53.855Z,18.00
2019-05-30T14:59:20.518Z,18.10
2019-05-30T15:01:47.189Z,17.90
2019-05-30T15:04:13.918Z,18.10
2019-05-30T15:06:40.548Z,18.10
2019-05-30T15:09:20.197Z,18.40
2019-05-30T15:11:35.639Z,18.40
2019-05-30T15:14:02.307Z,18.20
2019-05-30T15:16:28.859Z,18.10
2019-05-30T15:18:55.407Z,18.30
2019-05-30T15:21:21.921Z,18.40
2019-05-30T15:23:48.458Z,18.70
2019-05-30T15:26:16.224Z,18.50
2019-05-30T15:28:42.905Z,18.30
2019-05-30T15:31:10.286Z,18.10
2019-05-30T15:33:36.914Z,18.20
2019-05-30T15:36:04.573Z,18.20
2019-05-30T15:38:31.202Z,18.20
2019-05-30T15:40:57.882Z,18.10
2019-05-30T15:43:25.600Z,18.00
2019-05-30T15:45:52.411Z,17.90
2019-05-30T15:48:19.151Z,17.90
2019-05-30T15:50:45.817Z,18.00
2019-05-30T15:53:13.090Z,17.90
2019-05-30T15:55:39.709Z,17.80
2019-05-30T15:58:06.351Z,18.10
2019-05-30T16:00:36.731Z,18.00
2019-05-30T16:03:02.162Z,17.90
2019-05-30T16:05:28.926Z,18.00
2019-05-30T16:07:55.761Z,18.00
2019-05-30T16:10:22.536Z,18.10
2019-05-30T16:12:49.282Z,18.10
2019-05-30T16:15:17.474Z,18.40
2019-05-30T16:17:44.369Z,18.40
2019-05-30T16:20:11.745Z,18.40
2019-05-30T16:22:40.884Z,18.30
2019-05-30T16:25:08.143Z,18.30
2019-05-30T16:27:34.878Z,18.10
2019-05-30T16:30:01.664Z,18.10
2019-05-30T16:32:28.700Z,18.20
2019-05-30T16:34:55.468Z,18.20
2019-05-30T16:37:22.252Z,18.30
2019-05-30T16:40:04.656Z,18.30
2019-05-30T16:42:20.284Z,18.30
2019-05-30T16:44:48.542Z,18.20
2019-05-30T16:47:16.569Z,18.30
2019-05-30T16:49:44.449Z,18.40
2019-05-30T16:52:11.122Z,18.30
2019-05-30T16:54:37.759Z,18.30
2019-05-30T16:57:04.751Z,18.50
2019-05-30T16:59:31.320Z,18.60
2019-05-30T17:01:58.638Z,18.70
2019-05-30T17:04:25.368Z,18.80
2019-05-30T17:06:52.031Z,18.60
2019-05-30T17:09:19.226Z,18.70
2019-05-30T17:11:45.838Z,18.60
2019-05-30T17:14:12.853Z,18.60
2019-05-30T17:16:39.518Z,18.60
2019-05-30T17:19:07.049Z,18.50
2019-05-30T17:21:33.718Z,18.50
2019-05-30T17:24:00.656Z,18.60
2019-05-30T17:26:27.722Z,18.80
2019-05-30T17:28:54.443Z,18.60
2019-05-30T17:31:21.851Z,18.70
2019-05-30T17:33:48.554Z,18.60
2019-05-30T17:36:15.919Z,18.60
2019-05-30T17:38:42.561Z,18.70
2019-05-30T17:41:10.030Z,18.70
2019-05-30T17:43:36.702Z,18.70
2019-05-30T17:46:03.487Z,18.70
2019-05-30T17:48:30.115Z,18.80
2019-05-30T17:50:56.554Z,18.80
2019-05-30T17:53:23.982Z,18.70
2019-05-30T17:55:50.537Z,18.90
2019-05-30T17:58:17.118Z,19.00
2019-05-30T18:00:43.751Z,18.80
2019-05-30T18:03:10.411Z,18.70
2019-05-30T18:05:37.377Z,18.70
2019-05-30T18:08:04.320Z,18.70
2019-05-30T18:10:31.251Z,18.60
2019-05-30T18:12:57.818Z,18.60
2019-05-30T18:15:27.736Z,18.50
2019-05-30T18:17:53.421Z,18.50
2019-05-30T18:20:21.063Z,18.50
2019-05-30T18:22:47.835Z,18.50
2019-05-30T18:25:15.270Z,18.60
2019-05-30T18:27:41.878Z,18.60
2019-05-30T18:30:10.021Z,18.60
2019-05-30T18:32:36.559Z,18.60
2019-05-30T18:35:04.732Z,18.40
2019-05-30T18:37:32.454Z,18.40
2019-05-30T18:39:59.014Z,18.40
2019-05-30T18:42:27.193Z,18.40
2019-05-30T18:44:54.007Z,18.40
2019-05-30T18:47:20.611Z,18.30
2019-05-30T18:49:47.371Z,18.40
2019-05-30T18:52:17.123Z,18.40
2019-05-30T18:54:42.374Z,18.40
2019-05-30T18:57:09.047Z,18.30
2019-05-30T18:59:35.677Z,18.40
2019-05-30T19:02:02.411Z,18.30
2019-05-30T19:04:30.087Z,18.20
2019-05-30T19:06:56.716Z,18.20
2019-05-30T19:09:23.290Z,18.30
2019-05-30T19:11:49.827Z,18.10
2019-05-30T19:14:16.485Z,18.10
2019-05-30T19:16:43.128Z,18.10
2019-05-30T19:19:09.887Z,18.20
2019-05-30T19:21:37.325Z,18.10
2019-05-30T19:24:04.098Z,17.90
2019-05-30T19:26:30.723Z,17.90
2019-05-30T19:28:57.401Z,18.00
2019-05-30T19:31:24.020Z,18.10
2019-05-30T19:33:50.694Z,18.10
2019-05-30T19:36:17.331Z,18.00
2019-05-30T19:38:44.296Z,18.10
2019-05-30T19:41:11.026Z,18.00
2019-05-30T19:43:38.060Z,18.00
2019-05-30T19:46:06.457Z,17.90
2019-05-30T19:48:34.295Z,18.00
2019-05-30T19:51:01.164Z,17.90
2019-05-30T19:53:28.814Z,17.80
2019-05-30T19:55:55.726Z,17.90
2019-05-30T19:58:22.301Z,18.00
2019-05-30T20:00:57.767Z,17.80
2019-05-30T20:03:17.414Z,17.90
2019-05-30T20:05:45.252Z,17.90
2019-05-30T20:08:11.930Z,17.90
2019-05-30T20:10:39.206Z,17.80
2019-05-30T20:13:07.535Z,17.80
2019-05-30T20:15:35.348Z,17.90
2019-05-30T20:18:02.303Z,17.80
2019-05-30T20:20:47.774Z,17.80
2019-05-30T20:22:59.307Z,17.80
2019-05-30T20:25:26.298Z,17.70
2019-05-30T20:27:53.065Z,17.70
2019-05-30T20:30:21.829Z,17.80
2019-05-30T20:32:48.482Z,17.70
2019-05-30T20:35:15.378Z,17.80
2019-05-30T20:37:42.920Z,17.80
2019-05-30T20:40:12.310Z,17.70
2019-05-30T20:42:39.246Z,17.80
2019-05-30T20:45:10.084Z,17.80
2019-05-30T20:47:38.676Z,17.90
2019-05-30T20:50:06.570Z,17.80
2019-05-30T20:52:37.063Z,17.80
2019-05-30T20:55:05.786Z,17.70
2019-05-30T20:57:34.269Z,17.60
2019-05-30T21:00:05.581Z,17.70
2019-05-30T21:02:32.810Z,17.60
2019-05-30T21:04:59.496Z,17.80
2019-05-30T21:07:27.138Z,17.70
2019-05-30T21:09:54.103Z,17.80
2019-05-30T21:12:37.154Z,17.70
2019-05-30T21:14:53.203Z,17.70
2019-05-30T21:17:20.784Z,17.70
2019-05-30T21:19:47.515Z,17.70
2019-05-30T21:22:14.966Z,17.70
2019-05-30T21:24:42.672Z,17.70
2019-05-30T21:27:09.249Z,17.70
2019-05-30T21:29:36.775Z,17.60
2019-05-30T21:32:03.393Z,17.50
2019-05-30T21:34:30.136Z,17.50
2019-05-30T21:36:57.085Z,17.60
2019-05-30T21:39:23.999Z,17.50
2019-05-30T21:41:50.583Z,17.70
2019-05-30T21:44:17.309Z,17.70
2019-05-30T21:46:44.771Z,17.50
2019-05-30T21:49:11.459Z,17.50
2019-05-30T21:51:39.095Z,17.60
2019-05-30T21:54:05.964Z,17.40
2019-05-30T21:56:34.242Z,17.50
2019-05-30T21:59:01.282Z,17.50
2019-05-30T22:01:31.657Z,17.40
2019-05-30T22:03:59.302Z,17.40
2019-05-30T22:06:28.323Z,17.50
2019-05-30T22:08:54.986Z,17.50
2019-05-30T22:11:21.760Z,17.40
2019-05-30T22:13:49.359Z,17.30
2019-05-30T22:16:16.572Z,17.30
2019-05-30T22:18:45.858Z,17.30
2019-05-30T22:21:12.566Z,17.30
2019-05-30T22:23:39.201Z,17.20
2019-05-30T22:26:06.480Z,17.30
2019-05-30T22:28:33.214Z,17.40
2019-05-30T22:31:00.473Z,17.30
2019-05-30T22:33:27.206Z,17.30
2019-05-30T22:35:54.082Z,17.30
2019-05-30T22:38:20.697Z,17.30
2019-05-30T22:40:47.909Z,17.30
2019-05-30T22:43:24.810Z,17.40
2019-05-30T22:45:44.147Z,17.20
2019-05-30T22:48:10.731Z,17.20
2019-05-30T22:50:37.378Z,17.30
2019-05-30T22:53:04.232Z,17.30
2019-05-30T22:55:30.793Z,17.20
2019-05-30T22:57:57.429Z,17.20
2019-05-30T23:00:25.979Z,17.20
2019-05-30T23:02:54.265Z,17.20
2019-05-30T23:05:21.087Z,17.30
2019-05-30T23:07:49.398Z,17.30
2019-05-30T23:10:16.500Z,17.30
2019-05-30T23:12:44.047Z,17.10
2019-05-30T23:15:11.320Z,17.10
2019-05-30T23:17:37.993Z,17.10
2019-05-30T23:20:05.338Z,17.10
2019-05-30T23:22:32.318Z,16.90
2019-05-30T23:24:59.822Z,17.00
2019-05-30T23:27:28.099Z,17.00
2019-05-30T23:29:55.869Z,16.90
2019-05-30T23:32:22.711Z,17.00
2019-05-30T23:34:50.165Z,16.90
2019-05-30T23:37:16.925Z,16.90
2019-05-30T23:39:44.359Z,16.90
2019-05-30T23:42:11.036Z,17.10
2019-05-30T23:44:38.475Z,17.00
2019-05-30T23:47:05.716Z,17.00
2019-05-30T23:49:33.925Z,17.00
2019-05-30T23:52:00.593Z,16.90
2019-05-30T23:54:27.734Z,16.80
2019-05-30T23:56:54.801Z,17.00
2019-05-30T23:59:22.651Z,16.80
